sensor_id;sensor_type;location;lat;lon;timestamp;P1;durP1;ratioP1;P2;durP2;ratioP2
18702;SDS011;9481;48.796;9.210;2023-02-15T00:00:16;15.20;;;9.67;;
18702;SDS011;9481;48.796;9.210;2023-02-15T00:02:42;16.83;;;10.70;;
18702;SDS011;9481;48.796;9.210;2023-02-15T00:05:08;15.97;;;10.50;;
18702;SDS011;9481;48.796;9.210;2023-02-15T00:07:33;15.17;;;10.57;;
18702;SDS011;9481;48.796;9.210;2023-02-15T00:09:59;13.07;;;9.83;;
18702;SDS011;9481;48.796;9.210;2023-02-15T00:12:25;16.00;;;10.30;;
18702;SDS011;9481;48.796;9.210;2023-02-15T00:14:51;14.30;;;9.93;;
18702;SDS011;9481;48.796;9.210;2023-02-15T00:17:16;14.60;;;10.53;;
18702;SDS011;9481;48.796;9.210;2023-02-15T00:19:42;13.97;;;10.07;;
18702;SDS011;9481;48.796;9.210;2023-02-15T00:22:08;14.53;;;10.23;;
18702;SDS011;9481;48.796;9.210;2023-02-15T00:24:34;15.23;;;10.10;;
18702;SDS011;9481;48.796;9.210;2023-02-15T00:27:00;15.60;;;10.10;;
18702;SDS011;9481;48.796;9.210;2023-02-15T00:29:25;16.03;;;10.47;;
18702;SDS011;9481;48.796;9.210;2023-02-15T00:31:51;15.67;;;10.20;;
18702;SDS011;9481;48.796;9.210;2023-02-15T00:34:19;16.10;;;10.47;;
18702;SDS011;9481;48.796;9.210;2023-02-15T00:36:48;16.10;;;10.67;;
18702;SDS011;9481;48.796;9.210;2023-02-15T00:39:15;15.13;;;10.67;;
18702;SDS011;9481;48.796;9.210;2023-02-15T00:41:42;18.33;;;10.27;;
18702;SDS011;9481;48.796;9.210;2023-02-15T00:44:09;14.93;;;10.23;;
18702;SDS011;9481;48.796;9.210;2023-02-15T00:46:35;16.43;;;10.33;;
18702;SDS011;9481;48.796;9.210;2023-02-15T00:49:01;14.50;;;10.33;;
18702;SDS011;9481;48.796;9.210;2023-02-15T00:51:28;15.70;;;10.57;;
18702;SDS011;9481;48.796;9.210;2023-02-15T00:53:54;14.90;;;10.10;;
18702;SDS011;9481;48.796;9.210;2023-02-15T00:56:20;15.27;;;10.60;;
18702;SDS011;9481;48.796;9.210;2023-02-15T00:58:46;14.73;;;10.30;;
18702;SDS011;9481;48.796;9.210;2023-02-15T01:01:13;16.63;;;10.73;;
18702;SDS011;9481;48.796;9.210;2023-02-15T01:03:44;17.33;;;11.23;;
18702;SDS011;9481;48.796;9.210;2023-02-15T01:06:11;17.03;;;11.53;;
18702;SDS011;9481;48.796;9.210;2023-02-15T01:08:39;14.87;;;10.40;;
18702;SDS011;9481;48.796;9.210;2023-02-15T01:11:05;14.53;;;9.80;;
18702;SDS011;9481;48.796;9.210;2023-02-15T01:13:34;15.57;;;10.43;;
18702;SDS011;9481;48.796;9.210;2023-02-15T01:16:01;15.57;;;10.40;;
18702;SDS011;9481;48.796;9.210;2023-02-15T01:18:28;16.97;;;10.77;;
18702;SDS011;9481;48.796;9.210;2023-02-15T01:20:54;16.93;;;10.37;;
18702;SDS011;9481;48.796;9.210;2023-02-15T01:23:21;16.37;;;10.57;;
18702;SDS011;9481;48.796;9.210;2023-02-15T01:25:47;16.60;;;10.53;;
18702;SDS011;9481;48.796;9.210;2023-02-15T01:28:13;16.93;;;11.63;;
18702;SDS011;9481;48.796;9.210;2023-02-15T01:30:39;16.10;;;11.00;;
18702;SDS011;9481;48.796;9.210;2023-02-15T01:33:05;15.57;;;10.20;;
18702;SDS011;9481;48.796;9.210;2023-02-15T01:35:30;16.70;;;10.57;;
18702;SDS011;9481;48.796;9.210;2023-02-15T01:37:57;18.10;;;10.93;;
18702;SDS011;9481;48.796;9.210;2023-02-15T01:40:23;17.47;;;11.30;;
18702;SDS011;9481;48.796;9.210;2023-02-15T01:42:51;16.93;;;10.70;;
18702;SDS011;9481;48.796;9.210;2023-02-15T01:45:23;15.20;;;10.23;;
18702;SDS011;9481;48.796;9.210;2023-02-15T01:48:18;16.00;;;10.90;;
18702;SDS011;9481;48.796;9.210;2023-02-15T01:50:52;17.10;;;10.90;;
18702;SDS011;9481;48.796;9.210;2023-02-15T01:53:27;16.17;;;10.90;;
18702;SDS011;9481;48.796;9.210;2023-02-15T01:56:08;15.40;;;10.97;;
18702;SDS011;9481;48.796;9.210;2023-02-15T01:58:42;17.57;;;11.13;;
18702;SDS011;9481;48.796;9.210;2023-02-15T02:01:08;16.20;;;11.47;;
18702;SDS011;9481;48.796;9.210;2023-02-15T02:06:21;17.27;;;10.93;;
18702;SDS011;9481;48.796;9.210;2023-02-15T02:08:48;16.73;;;10.90;;
18702;SDS011;9481;48.796;9.210;2023-02-15T02:11:15;18.60;;;11.17;;
18702;SDS011;9481;48.796;9.210;2023-02-15T02:13:41;17.13;;;11.00;;
18702;SDS011;9481;48.796;9.210;2023-02-15T02:19:14;16.60;;;11.37;;
18702;SDS011;9481;48.796;9.210;2023-02-15T02:31:48;18.07;;;11.00;;
18702;SDS011;9481;48.796;9.210;2023-02-15T02:34:40;17.63;;;11.77;;
18702;SDS011;9481;48.796;9.210;2023-02-15T02:37:24;15.67;;;10.00;;
18702;SDS011;9481;48.796;9.210;2023-02-15T02:40:25;18.33;;;10.93;;
18702;SDS011;9481;48.796;9.210;2023-02-15T02:46:19;17.73;;;10.90;;
18702;SDS011;9481;48.796;9.210;2023-02-15T02:48:52;19.27;;;11.50;;
18702;SDS011;9481;48.796;9.210;2023-02-15T02:51:20;14.40;;;10.37;;
18702;SDS011;9481;48.796;9.210;2023-02-15T02:53:50;15.60;;;11.57;;
18702;SDS011;9481;48.796;9.210;2023-02-15T02:56:36;15.63;;;10.50;;
18702;SDS011;9481;48.796;9.210;2023-02-15T02:59:15;16.53;;;10.97;;
18702;SDS011;9481;48.796;9.210;2023-02-15T03:01:54;19.33;;;11.70;;
18702;SDS011;9481;48.796;9.210;2023-02-15T03:04:38;17.93;;;11.27;;
18702;SDS011;9481;48.796;9.210;2023-02-15T03:07:15;17.60;;;11.13;;
18702;SDS011;9481;48.796;9.210;2023-02-15T03:09:48;18.57;;;11.87;;
18702;SDS011;9481;48.796;9.210;2023-02-15T03:12:19;17.37;;;11.20;;
18702;SDS011;9481;48.796;9.210;2023-02-15T03:14:51;20.03;;;12.43;;
18702;SDS011;9481;48.796;9.210;2023-02-15T03:17:26;21.37;;;12.77;;
18702;SDS011;9481;48.796;9.210;2023-02-15T03:19:57;19.20;;;12.90;;
18702;SDS011;9481;48.796;9.210;2023-02-15T03:22:33;20.00;;;12.73;;
18702;SDS011;9481;48.796;9.210;2023-02-15T03:25:05;18.60;;;11.47;;
18702;SDS011;9481;48.796;9.210;2023-02-15T03:27:45;18.40;;;11.47;;
18702;SDS011;9481;48.796;9.210;2023-02-15T03:30:17;17.57;;;10.93;;
18702;SDS011;9481;48.796;9.210;2023-02-15T03:32:47;19.33;;;11.10;;
18702;SDS011;9481;48.796;9.210;2023-02-15T03:35:14;17.30;;;11.27;;
18702;SDS011;9481;48.796;9.210;2023-02-15T03:37:41;16.70;;;10.73;;
18702;SDS011;9481;48.796;9.210;2023-02-15T03:40:19;15.80;;;10.67;;
18702;SDS011;9481;48.796;9.210;2023-02-15T03:43:19;16.30;;;10.80;;
18702;SDS011;9481;48.796;9.210;2023-02-15T03:46:08;14.67;;;10.53;;
18702;SDS011;9481;48.796;9.210;2023-02-15T03:49:08;15.53;;;10.67;;
18702;SDS011;9481;48.796;9.210;2023-02-15T03:52:07;17.00;;;10.67;;
18702;SDS011;9481;48.796;9.210;2023-02-15T03:54:36;15.23;;;10.60;;
18702;SDS011;9481;48.796;9.210;2023-02-15T03:57:08;15.20;;;10.73;;
18702;SDS011;9481;48.796;9.210;2023-02-15T04:05:40;16.30;;;10.40;;
18702;SDS011;9481;48.796;9.210;2023-02-15T04:08:08;15.90;;;10.47;;
18702;SDS011;9481;48.796;9.210;2023-02-15T04:10:35;14.93;;;10.20;;
18702;SDS011;9481;48.796;9.210;2023-02-15T04:13:24;18.23;;;10.73;;
18702;SDS011;9481;48.796;9.210;2023-02-15T04:15:57;16.07;;;10.67;;
18702;SDS011;9481;48.796;9.210;2023-02-15T04:18:29;16.43;;;10.47;;
18702;SDS011;9481;48.796;9.210;2023-02-15T04:21:14;16.50;;;10.63;;
18702;SDS011;9481;48.796;9.210;2023-02-15T04:23:58;15.90;;;11.00;;
18702;SDS011;9481;48.796;9.210;2023-02-15T04:26:43;13.83;;;9.77;;
18702;SDS011;9481;48.796;9.210;2023-02-15T04:29:09;17.33;;;11.20;;
18702;SDS011;9481;48.796;9.210;2023-02-15T04:31:34;15.37;;;10.33;;
18702;SDS011;9481;48.796;9.210;2023-02-15T04:34:00;14.80;;;10.00;;
18702;SDS011;9481;48.796;9.210;2023-02-15T04:36:25;15.70;;;10.33;;
18702;SDS011;9481;48.796;9.210;2023-02-15T04:38:51;15.60;;;10.60;;
18702;SDS011;9481;48.796;9.210;2023-02-15T04:41:17;15.10;;;9.73;;
18702;SDS011;9481;48.796;9.210;2023-02-15T04:43:42;18.47;;;11.00;;
18702;SDS011;9481;48.796;9.210;2023-02-15T04:46:08;15.30;;;10.80;;
18702;SDS011;9481;48.796;9.210;2023-02-15T04:48:33;18.50;;;10.73;;
18702;SDS011;9481;48.796;9.210;2023-02-15T04:50:59;16.33;;;11.07;;
18702;SDS011;9481;48.796;9.210;2023-02-15T04:53:31;18.50;;;11.27;;
18702;SDS011;9481;48.796;9.210;2023-02-15T04:55:58;19.20;;;11.87;;
18702;SDS011;9481;48.796;9.210;2023-02-15T04:58:23;16.90;;;11.17;;
18702;SDS011;9481;48.796;9.210;2023-02-15T05:00:49;17.97;;;10.97;;
18702;SDS011;9481;48.796;9.210;2023-02-15T05:03:15;19.00;;;11.87;;
18702;SDS011;9481;48.796;9.210;2023-02-15T05:05:40;16.07;;;10.57;;
18702;SDS011;9481;48.796;9.210;2023-02-15T05:08:06;17.27;;;11.33;;
18702;SDS011;9481;48.796;9.210;2023-02-15T05:10:32;20.03;;;11.27;;
18702;SDS011;9481;48.796;9.210;2023-02-15T05:12:57;17.50;;;10.57;;
18702;SDS011;9481;48.796;9.210;2023-02-15T05:15:23;18.90;;;11.80;;
18702;SDS011;9481;48.796;9.210;2023-02-15T05:17:49;17.27;;;11.30;;
18702;SDS011;9481;48.796;9.210;2023-02-15T05:20:15;16.77;;;11.27;;
18702;SDS011;9481;48.796;9.210;2023-02-15T05:22:41;18.97;;;11.97;;
18702;SDS011;9481;48.796;9.210;2023-02-15T05:25:08;19.73;;;12.20;;
18702;SDS011;9481;48.796;9.210;2023-02-15T05:27:52;17.97;;;11.67;;
18702;SDS011;9481;48.796;9.210;2023-02-15T05:30:36;18.13;;;12.13;;
18702;SDS011;9481;48.796;9.210;2023-02-15T05:33:04;18.63;;;11.70;;
18702;SDS011;9481;48.796;9.210;2023-02-15T05:35:33;18.73;;;12.03;;
18702;SDS011;9481;48.796;9.210;2023-02-15T05:38:00;16.23;;;11.00;;
18702;SDS011;9481;48.796;9.210;2023-02-15T05:40:25;18.67;;;12.20;;
18702;SDS011;9481;48.796;9.210;2023-02-15T05:42:51;21.07;;;12.10;;
18702;SDS011;9481;48.796;9.210;2023-02-15T05:45:17;16.60;;;11.30;;
18702;SDS011;9481;48.796;9.210;2023-02-15T05:47:43;17.63;;;11.87;;
18702;SDS011;9481;48.796;9.210;2023-02-15T05:50:09;18.07;;;12.40;;
18702;SDS011;9481;48.796;9.210;2023-02-15T05:52:36;17.63;;;10.90;;
18702;SDS011;9481;48.796;9.210;2023-02-15T05:55:02;17.93;;;11.23;;
18702;SDS011;9481;48.796;9.210;2023-02-15T05:57:29;23.23;;;11.47;;
18702;SDS011;9481;48.796;9.210;2023-02-15T05:59:55;17.97;;;11.43;;
18702;SDS011;9481;48.796;9.210;2023-02-15T06:02:21;18.30;;;11.77;;
18702;SDS011;9481;48.796;9.210;2023-02-15T06:04:47;16.20;;;11.10;;
18702;SDS011;9481;48.796;9.210;2023-02-15T06:07:13;18.63;;;11.17;;
18702;SDS011;9481;48.796;9.210;2023-02-15T06:09:38;19.63;;;11.33;;
18702;SDS011;9481;48.796;9.210;2023-02-15T06:12:04;18.73;;;12.03;;
18702;SDS011;9481;48.796;9.210;2023-02-15T06:14:30;19.23;;;11.47;;
18702;SDS011;9481;48.796;9.210;2023-02-15T06:16:56;16.80;;;11.10;;
18702;SDS011;9481;48.796;9.210;2023-02-15T06:19:21;18.43;;;11.30;;
18702;SDS011;9481;48.796;9.210;2023-02-15T06:21:47;17.23;;;11.13;;
18702;SDS011;9481;48.796;9.210;2023-02-15T06:24:14;17.77;;;11.13;;
18702;SDS011;9481;48.796;9.210;2023-02-15T06:26:40;16.77;;;11.30;;
18702;SDS011;9481;48.796;9.210;2023-02-15T06:29:06;17.17;;;10.73;;
18702;SDS011;9481;48.796;9.210;2023-02-15T06:31:32;16.97;;;11.00;;
18702;SDS011;9481;48.796;9.210;2023-02-15T06:33:57;16.10;;;10.70;;
18702;SDS011;9481;48.796;9.210;2023-02-15T06:36:29;18.37;;;10.77;;
18702;SDS011;9481;48.796;9.210;2023-02-15T06:38:55;15.77;;;10.13;;
18702;SDS011;9481;48.796;9.210;2023-02-15T06:41:21;15.43;;;10.20;;
18702;SDS011;9481;48.796;9.210;2023-02-15T06:43:48;15.10;;;10.23;;
18702;SDS011;9481;48.796;9.210;2023-02-15T06:46:14;14.37;;;10.03;;
18702;SDS011;9481;48.796;9.210;2023-02-15T06:48:40;14.67;;;10.23;;
18702;SDS011;9481;48.796;9.210;2023-02-15T06:51:05;14.87;;;9.57;;
18702;SDS011;9481;48.796;9.210;2023-02-15T06:53:31;16.60;;;10.43;;
18702;SDS011;9481;48.796;9.210;2023-02-15T06:56:04;18.43;;;10.97;;
18702;SDS011;9481;48.796;9.210;2023-02-15T06:58:33;18.43;;;11.27;;
18702;SDS011;9481;48.796;9.210;2023-02-15T07:01:04;16.83;;;10.77;;
18702;SDS011;9481;48.796;9.210;2023-02-15T07:03:30;18.97;;;11.03;;
18702;SDS011;9481;48.796;9.210;2023-02-15T07:05:58;16.37;;;11.50;;
18702;SDS011;9481;48.796;9.210;2023-02-15T07:08:26;18.20;;;11.47;;
18702;SDS011;9481;48.796;9.210;2023-02-15T07:10:53;18.97;;;12.00;;
18702;SDS011;9481;48.796;9.210;2023-02-15T07:13:43;16.00;;;11.00;;
18702;SDS011;9481;48.796;9.210;2023-02-15T07:16:09;20.47;;;10.50;;
18702;SDS011;9481;48.796;9.210;2023-02-15T07:18:35;36.93;;;23.17;;
18702;SDS011;9481;48.796;9.210;2023-02-15T07:21:01;30.40;;;21.00;;
18702;SDS011;9481;48.796;9.210;2023-02-15T07:23:27;23.03;;;14.53;;
18702;SDS011;9481;48.796;9.210;2023-02-15T07:25:57;19.63;;;13.57;;
18702;SDS011;9481;48.796;9.210;2023-02-15T07:28:24;18.23;;;12.10;;
18702;SDS011;9481;48.796;9.210;2023-02-15T07:30:49;17.40;;;11.43;;
18702;SDS011;9481;48.796;9.210;2023-02-15T07:33:16;17.20;;;11.17;;
18702;SDS011;9481;48.796;9.210;2023-02-15T07:35:50;15.73;;;10.80;;
18702;SDS011;9481;48.796;9.210;2023-02-15T07:38:23;16.03;;;10.13;;
18702;SDS011;9481;48.796;9.210;2023-02-15T07:40:51;15.10;;;10.40;;
18702;SDS011;9481;48.796;9.210;2023-02-15T07:43:22;15.13;;;10.53;;
18702;SDS011;9481;48.796;9.210;2023-02-15T07:45:48;16.07;;;10.77;;
18702;SDS011;9481;48.796;9.210;2023-02-15T07:48:14;13.47;;;9.73;;
18702;SDS011;9481;48.796;9.210;2023-02-15T07:50:39;18.90;;;11.63;;
18702;SDS011;9481;48.796;9.210;2023-02-15T07:53:05;16.70;;;10.97;;
18702;SDS011;9481;48.796;9.210;2023-02-15T07:55:30;12.07;;;9.10;;
18702;SDS011;9481;48.796;9.210;2023-02-15T07:57:56;14.37;;;10.00;;
18702;SDS011;9481;48.796;9.210;2023-02-15T08:00:22;15.70;;;9.83;;
18702;SDS011;9481;48.796;9.210;2023-02-15T08:02:53;14.83;;;10.13;;
18702;SDS011;9481;48.796;9.210;2023-02-15T08:05:42;14.73;;;10.80;;
18702;SDS011;9481;48.796;9.210;2023-02-15T08:08:09;14.53;;;9.97;;
18702;SDS011;9481;48.796;9.210;2023-02-15T08:10:59;13.13;;;9.30;;
18702;SDS011;9481;48.796;9.210;2023-02-15T08:13:45;13.93;;;10.00;;
18702;SDS011;9481;48.796;9.210;2023-02-15T08:19:09;14.33;;;10.63;;
18702;SDS011;9481;48.796;9.210;2023-02-15T08:21:43;13.57;;;10.13;;
18702;SDS011;9481;48.796;9.210;2023-02-15T08:24:22;14.70;;;9.97;;
18702;SDS011;9481;48.796;9.210;2023-02-15T08:26:51;15.73;;;9.97;;
18702;SDS011;9481;48.796;9.210;2023-02-15T08:29:18;14.23;;;10.00;;
18702;SDS011;9481;48.796;9.210;2023-02-15T08:31:50;12.10;;;8.97;;
18702;SDS011;9481;48.796;9.210;2023-02-15T08:34:20;14.20;;;9.93;;
18702;SDS011;9481;48.796;9.210;2023-02-15T08:36:46;13.20;;;9.47;;
18702;SDS011;9481;48.796;9.210;2023-02-15T08:39:12;12.97;;;9.93;;
18702;SDS011;9481;48.796;9.210;2023-02-15T08:41:44;13.60;;;9.83;;
18702;SDS011;9481;48.796;9.210;2023-02-15T08:44:12;14.37;;;10.07;;
18702;SDS011;9481;48.796;9.210;2023-02-15T08:46:41;14.60;;;10.03;;
18702;SDS011;9481;48.796;9.210;2023-02-15T08:49:09;15.57;;;10.17;;
18702;SDS011;9481;48.796;9.210;2023-02-15T08:51:40;14.57;;;10.10;;
18702;SDS011;9481;48.796;9.210;2023-02-15T08:54:11;14.93;;;10.03;;
18702;SDS011;9481;48.796;9.210;2023-02-15T08:56:40;14.90;;;10.23;;
18702;SDS011;9481;48.796;9.210;2023-02-15T08:59:12;13.73;;;10.10;;
18702;SDS011;9481;48.796;9.210;2023-02-15T09:01:42;13.73;;;10.27;;
18702;SDS011;9481;48.796;9.210;2023-02-15T09:04:09;13.47;;;10.10;;
18702;SDS011;9481;48.796;9.210;2023-02-15T09:06:35;14.83;;;10.77;;
18702;SDS011;9481;48.796;9.210;2023-02-15T09:09:02;14.27;;;10.40;;
18702;SDS011;9481;48.796;9.210;2023-02-15T09:11:29;16.53;;;10.17;;
18702;SDS011;9481;48.796;9.210;2023-02-15T09:13:59;14.33;;;9.93;;
18702;SDS011;9481;48.796;9.210;2023-02-15T09:16:29;13.93;;;9.67;;
18702;SDS011;9481;48.796;9.210;2023-02-15T09:18:58;12.53;;;9.30;;
18702;SDS011;9481;48.796;9.210;2023-02-15T09:21:26;13.40;;;9.47;;
18702;SDS011;9481;48.796;9.210;2023-02-15T09:23:57;14.27;;;9.37;;
18702;SDS011;9481;48.796;9.210;2023-02-15T09:26:27;14.70;;;9.70;;
18702;SDS011;9481;48.796;9.210;2023-02-15T09:28:56;13.10;;;9.70;;
18702;SDS011;9481;48.796;9.210;2023-02-15T09:31:58;12.17;;;9.20;;
18702;SDS011;9481;48.796;9.210;2023-02-15T09:34:19;13.03;;;9.03;;
18702;SDS011;9481;48.796;9.210;2023-02-15T09:36:47;13.10;;;9.43;;
18702;SDS011;9481;48.796;9.210;2023-02-15T09:39:14;14.73;;;9.47;;
18702;SDS011;9481;48.796;9.210;2023-02-15T09:53:41;13.73;;;10.37;;
18702;SDS011;9481;48.796;9.210;2023-02-15T09:56:13;13.73;;;9.97;;
18702;SDS011;9481;48.796;9.210;2023-02-15T09:59:09;15.50;;;10.80;;
18702;SDS011;9481;48.796;9.210;2023-02-15T10:04:40;15.00;;;10.40;;
18702;SDS011;9481;48.796;9.210;2023-02-15T10:07:27;14.27;;;10.37;;
18702;SDS011;9481;48.796;9.210;2023-02-15T10:10:32;15.00;;;10.73;;
18702;SDS011;9481;48.796;9.210;2023-02-15T10:16:21;13.60;;;10.30;;
18702;SDS011;9481;48.796;9.210;2023-02-15T10:19:31;18.43;;;10.03;;
18702;SDS011;9481;48.796;9.210;2023-02-15T10:22:38;13.07;;;10.30;;
18702;SDS011;9481;48.796;9.210;2023-02-15T10:25:40;14.93;;;10.63;;
18702;SDS011;9481;48.796;9.210;2023-02-15T10:28:19;13.73;;;9.77;;
18702;SDS011;9481;48.796;9.210;2023-02-15T10:31:01;13.40;;;9.77;;
18702;SDS011;9481;48.796;9.210;2023-02-15T10:34:15;11.90;;;9.43;;
18702;SDS011;9481;48.796;9.210;2023-02-15T10:57:27;12.97;;;9.57;;
18702;SDS011;9481;48.796;9.210;2023-02-15T11:06:09;12.63;;;9.53;;
18702;SDS011;9481;48.796;9.210;2023-02-15T11:08:45;11.30;;;8.27;;
18702;SDS011;9481;48.796;9.210;2023-02-15T11:11:19;10.73;;;8.77;;
18702;SDS011;9481;48.796;9.210;2023-02-15T11:13:59;10.90;;;8.53;;
18702;SDS011;9481;48.796;9.210;2023-02-15T11:16:53;10.97;;;8.33;;
18702;SDS011;9481;48.796;9.210;2023-02-15T11:19:29;10.13;;;7.90;;
18702;SDS011;9481;48.796;9.210;2023-02-15T11:22:09;11.80;;;9.17;;
18702;SDS011;9481;48.796;9.210;2023-02-15T11:24:39;9.47;;;8.10;;
18702;SDS011;9481;48.796;9.210;2023-02-15T11:27:19;13.27;;;9.30;;
18702;SDS011;9481;48.796;9.210;2023-02-15T11:30:00;11.03;;;8.67;;
18702;SDS011;9481;48.796;9.210;2023-02-15T11:32:49;10.93;;;7.83;;
18702;SDS011;9481;48.796;9.210;2023-02-15T11:35:28;11.73;;;8.80;;
18702;SDS011;9481;48.796;9.210;2023-02-15T11:38:06;12.10;;;8.67;;
18702;SDS011;9481;48.796;9.210;2023-02-15T11:40:54;12.37;;;8.13;;
18702;SDS011;9481;48.796;9.210;2023-02-15T11:46:12;12.27;;;8.60;;
18702;SDS011;9481;48.796;9.210;2023-02-15T11:48:39;11.47;;;8.83;;
18702;SDS011;9481;48.796;9.210;2023-02-15T11:51:17;11.03;;;8.43;;
18702;SDS011;9481;48.796;9.210;2023-02-15T11:53:47;11.03;;;8.37;;
18702;SDS011;9481;48.796;9.210;2023-02-15T11:56:18;10.90;;;8.13;;
18702;SDS011;9481;48.796;9.210;2023-02-15T11:58:48;11.00;;;8.77;;
18702;SDS011;9481;48.796;9.210;2023-02-15T12:01:23;11.27;;;9.40;;
18702;SDS011;9481;48.796;9.210;2023-02-15T12:04:20;13.83;;;9.77;;
18702;SDS011;9481;48.796;9.210;2023-02-15T12:06:53;15.67;;;10.80;;
18702;SDS011;9481;48.796;9.210;2023-02-15T12:09:40;16.47;;;10.70;;
18702;SDS011;9481;48.796;9.210;2023-02-15T12:14:56;13.87;;;10.93;;
18702;SDS011;9481;48.796;9.210;2023-02-15T12:17:29;12.37;;;11.07;;
18702;SDS011;9481;48.796;9.210;2023-02-15T12:20:03;12.87;;;10.67;;
18702;SDS011;9481;48.796;9.210;2023-02-15T12:22:39;14.73;;;10.73;;
18702;SDS011;9481;48.796;9.210;2023-02-15T12:25:26;13.73;;;11.77;;
18702;SDS011;9481;48.796;9.210;2023-02-15T12:28:01;17.27;;;11.57;;
18702;SDS011;9481;48.796;9.210;2023-02-15T12:33:13;13.83;;;11.70;;
18702;SDS011;9481;48.796;9.210;2023-02-15T12:41:32;11.47;;;10.23;;
18702;SDS011;9481;48.796;9.210;2023-02-15T12:44:32;12.60;;;10.30;;
18702;SDS011;9481;48.796;9.210;2023-02-15T12:53:02;13.50;;;11.27;;
18702;SDS011;9481;48.796;9.210;2023-02-15T12:55:52;14.83;;;11.70;;
18702;SDS011;9481;48.796;9.210;2023-02-15T12:58:25;13.03;;;10.97;;
18702;SDS011;9481;48.796;9.210;2023-02-15T13:04:01;14.13;;;10.87;;
18702;SDS011;9481;48.796;9.210;2023-02-15T13:06:48;13.60;;;11.23;;
18702;SDS011;9481;48.796;9.210;2023-02-15T13:09:19;15.10;;;11.27;;
18702;SDS011;9481;48.796;9.210;2023-02-15T13:12:10;12.13;;;10.93;;
18702;SDS011;9481;48.796;9.210;2023-02-15T13:14:45;11.97;;;10.40;;
18702;SDS011;9481;48.796;9.210;2023-02-15T13:17:16;12.60;;;11.27;;
18702;SDS011;9481;48.796;9.210;2023-02-15T13:19:54;12.80;;;11.03;;
18702;SDS011;9481;48.796;9.210;2023-02-15T13:22:38;11.50;;;10.03;;
18702;SDS011;9481;48.796;9.210;2023-02-15T13:27:52;10.73;;;9.63;;
18702;SDS011;9481;48.796;9.210;2023-02-15T13:30:27;11.00;;;8.83;;
18702;SDS011;9481;48.796;9.210;2023-02-15T13:33:09;12.13;;;9.23;;
18702;SDS011;9481;48.796;9.210;2023-02-15T13:35:43;11.63;;;9.18;;
18702;SDS011;9481;48.796;9.210;2023-02-15T13:38:38;11.93;;;10.55;;
18702;SDS011;9481;48.796;9.210;2023-02-15T13:41:33;11.27;;;9.82;;
18702;SDS011;9481;48.796;9.210;2023-02-15T13:53:41;10.80;;;9.57;;
18702;SDS011;9481;48.796;9.210;2023-02-15T13:56:13;11.30;;;9.95;;
18702;SDS011;9481;48.796;9.210;2023-02-15T13:59:12;11.38;;;9.50;;
18702;SDS011;9481;48.796;9.210;2023-02-15T14:07:30;11.18;;;10.05;;
18702;SDS011;9481;48.796;9.210;2023-02-15T14:10:21;12.40;;;10.25;;
18702;SDS011;9481;48.796;9.210;2023-02-15T14:16:09;11.93;;;10.63;;
18702;SDS011;9481;48.796;9.210;2023-02-15T14:21:40;11.82;;;10.63;;
18702;SDS011;9481;48.796;9.210;2023-02-15T14:24:32;14.25;;;10.48;;
18702;SDS011;9481;48.796;9.210;2023-02-15T14:27:29;11.73;;;9.97;;
18702;SDS011;9481;48.796;9.210;2023-02-15T14:30:20;11.33;;;10.17;;
18702;SDS011;9481;48.796;9.210;2023-02-15T14:32:52;10.30;;;9.20;;
18702;SDS011;9481;48.796;9.210;2023-02-15T14:35:27;11.43;;;8.37;;
18702;SDS011;9481;48.796;9.210;2023-02-15T14:40:37;10.23;;;8.87;;
18702;SDS011;9481;48.796;9.210;2023-02-15T14:49:19;10.47;;;8.83;;
18702;SDS011;9481;48.796;9.210;2023-02-15T14:51:57;13.93;;;10.33;;
18702;SDS011;9481;48.796;9.210;2023-02-15T15:05:08;11.73;;;9.47;;
18702;SDS011;9481;48.796;9.210;2023-02-15T15:07:50;14.10;;;8.97;;
18702;SDS011;9481;48.796;9.210;2023-02-15T15:12:49;12.37;;;9.00;;
18702;SDS011;9481;48.796;9.210;2023-02-15T15:17:56;13.97;;;8.77;;
18702;SDS011;9481;48.796;9.210;2023-02-15T15:25:44;12.90;;;9.60;;
18702;SDS011;9481;48.796;9.210;2023-02-15T15:31:22;11.60;;;9.03;;
18702;SDS011;9481;48.796;9.210;2023-02-15T15:34:12;12.23;;;9.00;;
18702;SDS011;9481;48.796;9.210;2023-02-15T15:49:42;10.03;;;7.63;;
18702;SDS011;9481;48.796;9.210;2023-02-15T15:52:15;14.87;;;8.20;;
18702;SDS011;9481;48.796;9.210;2023-02-15T15:54:43;11.47;;;8.43;;
18702;SDS011;9481;48.796;9.210;2023-02-15T15:57:25;11.73;;;9.17;;
18702;SDS011;9481;48.796;9.210;2023-02-15T15:59:59;11.97;;;8.63;;
18702;SDS011;9481;48.796;9.210;2023-02-15T16:02:26;11.30;;;8.17;;
18702;SDS011;9481;48.796;9.210;2023-02-15T16:04:52;14.80;;;8.80;;
18702;SDS011;9481;48.796;9.210;2023-02-15T16:12:30;14.33;;;8.97;;
18702;SDS011;9481;48.796;9.210;2023-02-15T16:15:01;12.77;;;8.70;;
18702;SDS011;9481;48.796;9.210;2023-02-15T16:17:45;12.30;;;8.90;;
18702;SDS011;9481;48.796;9.210;2023-02-15T16:20:21;17.10;;;9.97;;
18702;SDS011;9481;48.796;9.210;2023-02-15T16:29:18;15.97;;;9.50;;
18702;SDS011;9481;48.796;9.210;2023-02-15T16:31:58;13.60;;;9.27;;
18702;SDS011;9481;48.796;9.210;2023-02-15T16:35:01;17.37;;;9.53;;
18702;SDS011;9481;48.796;9.210;2023-02-15T16:37:32;14.30;;;9.73;;
18702;SDS011;9481;48.796;9.210;2023-02-15T16:39:59;14.50;;;10.37;;
18702;SDS011;9481;48.796;9.210;2023-02-15T16:42:26;13.40;;;10.10;;
18702;SDS011;9481;48.796;9.210;2023-02-15T16:44:56;19.00;;;10.27;;
18702;SDS011;9481;48.796;9.210;2023-02-15T16:47:29;16.60;;;10.23;;
18702;SDS011;9481;48.796;9.210;2023-02-15T16:50:02;18.07;;;10.63;;
18702;SDS011;9481;48.796;9.210;2023-02-15T16:52:29;14.03;;;9.83;;
18702;SDS011;9481;48.796;9.210;2023-02-15T16:54:59;15.20;;;10.00;;
18702;SDS011;9481;48.796;9.210;2023-02-15T16:57:33;17.37;;;9.97;;
18702;SDS011;9481;48.796;9.210;2023-02-15T17:00:04;16.90;;;9.80;;
18702;SDS011;9481;48.796;9.210;2023-02-15T17:02:42;18.60;;;9.17;;
18702;SDS011;9481;48.796;9.210;2023-02-15T17:05:30;22.07;;;9.43;;
18702;SDS011;9481;48.796;9.210;2023-02-15T17:08:14;14.53;;;8.83;;
18702;SDS011;9481;48.796;9.210;2023-02-15T17:13:24;15.57;;;9.13;;
18702;SDS011;9481;48.796;9.210;2023-02-15T17:21:18;20.27;;;9.53;;
18702;SDS011;9481;48.796;9.210;2023-02-15T17:23:50;15.23;;;8.97;;
18702;SDS011;9481;48.796;9.210;2023-02-15T17:26:29;17.00;;;9.47;;
18702;SDS011;9481;48.796;9.210;2023-02-15T17:29:09;17.10;;;8.40;;
18702;SDS011;9481;48.796;9.210;2023-02-15T17:31:41;18.97;;;9.40;;
18702;SDS011;9481;48.796;9.210;2023-02-15T17:37:26;19.63;;;9.33;;
18702;SDS011;9481;48.796;9.210;2023-02-15T17:39:54;18.10;;;9.20;;
18702;SDS011;9481;48.796;9.210;2023-02-15T17:42:23;19.03;;;9.80;;
18702;SDS011;9481;48.796;9.210;2023-02-15T17:44:49;20.17;;;9.67;;
18702;SDS011;9481;48.796;9.210;2023-02-15T17:47:18;17.40;;;9.67;;
18702;SDS011;9481;48.796;9.210;2023-02-15T17:49:49;19.50;;;10.43;;
18702;SDS011;9481;48.796;9.210;2023-02-15T17:52:15;16.13;;;8.87;;
18702;SDS011;9481;48.796;9.210;2023-02-15T17:54:42;14.40;;;8.90;;
18702;SDS011;9481;48.796;9.210;2023-02-15T17:57:28;15.10;;;9.40;;
18702;SDS011;9481;48.796;9.210;2023-02-15T17:59:55;14.87;;;8.83;;
18702;SDS011;9481;48.796;9.210;2023-02-15T18:02:40;15.87;;;8.87;;
18702;SDS011;9481;48.796;9.210;2023-02-15T18:05:26;16.63;;;8.87;;
18702;SDS011;9481;48.796;9.210;2023-02-15T18:08:11;16.03;;;9.03;;
18702;SDS011;9481;48.796;9.210;2023-02-15T18:10:59;15.13;;;8.67;;
18702;SDS011;9481;48.796;9.210;2023-02-15T18:13:44;15.20;;;8.80;;
18702;SDS011;9481;48.796;9.210;2023-02-15T18:16:14;17.27;;;10.17;;
18702;SDS011;9481;48.796;9.210;2023-02-15T18:18:46;17.07;;;10.10;;
18702;SDS011;9481;48.796;9.210;2023-02-15T18:21:12;19.10;;;10.03;;